Red Bay, Florida
Current Conditions -  °F | °C
As of 12:55 PM on Monday 20 Oct 2014 (Local Time) from K54J Reporting Station
Broken Clouds Broken Clouds  
Wind Chill: 75°   Ceiling: 3700
Heat Index: 75°   Visibility: 10mi
Dew Point: 58°   Wind: 0mph
Humidity: 55%   Direction: NA
Pressure: 30.03"   Gusts: NA
Location:  30.678°N, 85.9545°W
Report Text: K54J 201755Z AUTO 00000KT 10SM BKN037 24/14 A3003 RMK AO2 T02370142 10245 20119
Loading
Personal Weather Stations






























Interactive Weather Map
Tropical Storm Tracking
New forecast layout! Learn more

10-Day Weather Forecast

Advertisements
Track Severe Weather on mobile